createdAt,value
2018-09-01T00:00:18.534Z,15.81
2018-09-01T00:02:51.718Z,15.81
2018-09-01T00:05:24.860Z,15.81
2018-09-01T00:07:57.905Z,15.88
2018-09-01T00:10:31.034Z,15.88
2018-09-01T00:13:04.026Z,15.88
2018-09-01T00:15:37.348Z,15.88
2018-09-01T00:18:10.503Z,15.81
2018-09-01T00:20:43.658Z,15.69
2018-09-01T00:23:16.739Z,15.69
2018-09-01T00:25:49.705Z,15.69
2018-09-01T00:28:22.716Z,15.69
2018-09-01T00:31:04.135Z,15.75
2018-09-01T00:33:37.204Z,15.69
2018-09-01T00:36:10.357Z,15.56
2018-09-01T00:38:49.419Z,15.56
2018-09-01T00:41:22.439Z,15.56
2018-09-01T00:43:55.460Z,15.50
2018-09-01T00:46:28.569Z,15.50
2018-09-01T00:49:01.583Z,15.44
2018-09-01T00:51:34.757Z,15.44
2018-09-01T00:54:07.857Z,15.44
2018-09-01T00:56:40.920Z,15.44
2018-09-01T00:59:14.003Z,15.44
2018-09-01T01:01:47.218Z,15.44
2018-09-01T01:04:20.362Z,15.38
2018-09-01T01:06:53.482Z,15.44
2018-09-01T01:09:26.692Z,15.44
2018-09-01T01:11:59.751Z,15.44
2018-09-01T01:14:32.877Z,15.44
2018-09-01T01:17:05.788Z,15.44
2018-09-01T01:19:39.685Z,15.38
2018-09-01T01:22:12.851Z,15.25
2018-09-01T01:24:45.841Z,15.31
2018-09-01T01:27:18.799Z,15.25
2018-09-01T01:29:51.821Z,15.19
2018-09-01T01:32:24.960Z,15.13
2018-09-01T01:35:00.844Z,15.06
2018-09-01T01:37:35.100Z,14.94
2018-09-01T01:40:08.148Z,14.94
2018-09-01T01:42:41.168Z,14.87
2018-09-01T01:45:14.110Z,14.87
2018-09-01T01:47:47.110Z,14.81
2018-09-01T01:50:20.246Z,14.75
2018-09-01T01:52:53.253Z,14.69
2018-09-01T02:00:18.330Z,14.63
2018-09-01T02:02:51.345Z,14.63
2018-09-01T02:05:30.759Z,14.56
2018-09-01T02:08:04.122Z,14.50
2018-09-01T02:10:37.047Z,14.50
2018-09-01T02:13:10.139Z,14.50
2018-09-01T02:15:43.095Z,14.38
2018-09-01T02:18:16.105Z,14.38
2018-09-01T02:20:49.227Z,14.38
2018-09-01T02:23:22.191Z,14.31
2018-09-01T02:25:55.099Z,14.31
2018-09-01T02:28:28.278Z,14.25
2018-09-01T02:31:01.311Z,14.25
2018-09-01T02:33:34.536Z,14.25
2018-09-01T02:36:07.528Z,14.19
2018-09-01T02:38:40.539Z,14.19
2018-09-01T02:41:13.560Z,14.13
2018-09-01T02:43:46.670Z,14.00
2018-09-01T02:46:19.811Z,13.94
2018-09-01T02:48:52.930Z,13.94
2018-09-01T02:51:25.962Z,13.88
2018-09-01T02:53:59.015Z,13.94
2018-09-01T02:56:31.987Z,13.88
2018-09-01T02:59:05.091Z,13.88
2018-09-01T03:01:38.149Z,13.81
2018-09-01T03:04:11.554Z,13.75
2018-09-01T03:06:50.822Z,13.81
2018-09-01T03:09:24.231Z,13.81
2018-09-01T03:11:58.147Z,13.88
2018-09-01T03:14:31.211Z,13.88
2018-09-01T03:17:04.407Z,13.69
2018-09-01T03:19:37.626Z,13.81
2018-09-01T03:22:10.723Z,13.81
2018-09-01T03:24:43.807Z,13.69
2018-09-01T03:27:16.922Z,13.62
2018-09-01T03:29:50.010Z,13.56
2018-09-01T03:32:23.130Z,13.56
2018-09-01T03:34:56.160Z,13.56
2018-09-01T03:37:29.139Z,13.50
2018-09-01T03:40:02.123Z,13.44
2018-09-01T03:42:35.187Z,13.44
2018-09-01T03:45:08.291Z,13.38
2018-09-01T03:47:41.351Z,13.38
2018-09-01T03:50:14.359Z,13.38
2018-09-01T03:52:47.375Z,13.38
2018-09-01T03:55:20.311Z,13.38
2018-09-01T03:57:53.549Z,13.31
2018-09-01T04:00:27.003Z,13.31
2018-09-01T04:03:00.135Z,13.25
2018-09-01T04:05:33.185Z,13.25
2018-09-01T04:08:06.143Z,13.25
2018-09-01T04:10:39.152Z,13.19
2018-09-01T04:13:12.272Z,13.19
2018-09-01T04:15:49.063Z,13.25
2018-09-01T04:18:22.060Z,13.25
2018-09-01T04:20:55.070Z,13.25
2018-09-01T04:23:28.066Z,13.19
2018-09-01T04:26:01.073Z,13.25
2018-09-01T04:28:34.252Z,13.13
2018-09-01T04:31:07.245Z,13.19
2018-09-01T04:33:40.325Z,13.13
2018-09-01T04:36:13.479Z,13.06
2018-09-01T04:38:46.619Z,13.19
2018-09-01T04:41:19.657Z,13.13
2018-09-01T04:43:52.688Z,13.19
2018-09-01T04:46:25.775Z,13.13
2018-09-01T04:48:58.946Z,13.19
2018-09-01T04:51:32.363Z,13.19
2018-09-01T04:54:05.373Z,13.19
2018-09-01T04:56:38.457Z,13.13
2018-09-01T04:59:11.509Z,13.06
2018-09-01T05:01:44.678Z,13.25
2018-09-01T05:04:17.854Z,13.06
2018-09-01T05:06:50.956Z,13.19
2018-09-01T05:09:24.365Z,13.25
2018-09-01T05:11:57.455Z,13.19
2018-09-01T05:14:30.412Z,13.31
2018-09-01T05:17:03.445Z,13.31
2018-09-01T05:19:36.635Z,13.25
2018-09-01T05:22:09.687Z,13.38
2018-09-01T05:24:42.949Z,13.50
2018-09-01T05:27:15.961Z,13.38
2018-09-01T05:29:48.972Z,13.44
2018-09-01T05:32:22.011Z,13.56
2018-09-01T05:34:55.098Z,13.56
2018-09-01T05:37:28.159Z,13.56
2018-09-01T05:40:01.269Z,13.56
2018-09-01T05:42:34.416Z,13.62
2018-09-01T05:45:07.507Z,13.56
2018-09-01T05:47:40.571Z,13.81
2018-09-01T05:50:13.560Z,13.81
2018-09-01T05:52:46.516Z,13.75
2018-09-01T05:55:19.509Z,13.81
2018-09-01T05:57:52.535Z,13.81
2018-09-01T06:00:25.916Z,13.88
2018-09-01T06:02:58.954Z,14.00
2018-09-01T06:05:31.916Z,14.00
2018-09-01T06:08:04.896Z,14.13
2018-09-01T06:10:37.854Z,14.31
2018-09-01T06:13:10.973Z,14.38
2018-09-01T06:15:43.926Z,14.38
2018-09-01T06:18:16.993Z,14.44
2018-09-01T06:20:50.148Z,14.50
2018-09-01T06:23:23.237Z,14.56
2018-09-01T06:25:56.247Z,14.63
2018-09-01T06:28:41.151Z,14.69
2018-09-01T06:31:15.025Z,14.75
2018-09-01T06:33:48.122Z,14.81
2018-09-01T06:36:21.060Z,14.81
2018-09-01T06:38:54.016Z,14.87
2018-09-01T06:41:27.056Z,14.94
2018-09-01T06:44:00.052Z,15.06
2018-09-01T06:46:32.949Z,15.13
2018-09-01T06:49:06.135Z,15.25
2018-09-01T06:51:39.313Z,15.06
2018-09-01T06:54:12.449Z,15.13
2018-09-01T06:56:45.485Z,15.19
2018-09-01T06:59:18.573Z,15.25
2018-09-01T07:01:51.637Z,15.19
2018-09-01T07:04:25.400Z,15.19
2018-09-01T07:06:58.425Z,15.19
2018-09-01T07:09:31.431Z,15.25
2018-09-01T07:12:04.893Z,15.25
2018-09-01T07:14:38.003Z,15.44
2018-09-01T07:17:11.247Z,15.44
2018-09-01T07:19:44.485Z,15.44
2018-09-01T07:22:17.477Z,15.56
2018-09-01T07:24:50.568Z,15.63
2018-09-01T07:27:23.630Z,15.81
2018-09-01T07:29:56.732Z,15.69
2018-09-01T07:32:30.016Z,15.88
2018-09-01T07:35:03.136Z,16.00
2018-09-01T07:37:36.116Z,15.94
2018-09-01T07:40:09.311Z,15.94
2018-09-01T07:42:42.303Z,16.00
2018-09-01T07:45:16.662Z,16.06
2018-09-01T07:47:49.909Z,16.06
2018-09-01T07:50:23.083Z,16.25
2018-09-01T07:52:56.203Z,16.25
2018-09-01T07:55:29.307Z,16.37
2018-09-01T07:58:02.500Z,16.44
2018-09-01T08:00:36.959Z,16.50
2018-09-01T08:03:10.065Z,16.62
2018-09-01T08:05:43.276Z,16.69
2018-09-01T08:08:16.512Z,16.75
2018-09-01T08:10:49.925Z,16.87
2018-09-01T08:13:23.150Z,16.94
2018-09-01T08:15:56.824Z,17.19
2018-09-01T08:18:30.738Z,17.31
2018-09-01T08:21:03.956Z,17.25
2018-09-01T08:23:37.060Z,17.44
2018-09-01T08:26:10.534Z,17.50
2018-09-01T08:28:43.724Z,17.56
2018-09-01T08:31:16.852Z,17.62
2018-09-01T08:33:49.963Z,17.69
2018-09-01T08:36:23.122Z,17.62
2018-09-01T08:38:56.246Z,17.62
2018-09-01T08:41:29.578Z,17.75
2018-09-01T08:44:03.431Z,17.75
2018-09-01T08:46:36.464Z,17.81
2018-09-01T08:49:09.606Z,18.06
2018-09-01T08:51:42.843Z,17.94
2018-09-01T08:54:16.193Z,17.94
2018-09-01T08:56:49.278Z,17.94
2018-09-01T08:59:22.359Z,18.00
2018-09-01T09:01:55.503Z,18.06
2018-09-01T09:04:28.523Z,18.06
2018-09-01T09:07:01.777Z,18.37
2018-09-01T09:09:34.829Z,18.56
2018-09-01T09:12:08.032Z,18.50
2018-09-01T09:14:41.095Z,18.44
2018-09-01T09:17:14.249Z,18.62
2018-09-01T09:19:47.285Z,18.81
2018-09-01T09:22:20.320Z,18.56
2018-09-01T09:24:53.354Z,18.62
2018-09-01T09:27:26.540Z,18.69
2018-09-01T09:30:05.048Z,18.62
2018-09-01T09:32:38.194Z,18.75
2018-09-01T09:35:11.387Z,19.00
2018-09-01T09:37:44.751Z,19.00
2018-09-01T09:40:18.072Z,19.31
2018-09-01T09:42:51.350Z,19.12
2018-09-01T09:45:24.580Z,19.31
2018-09-01T09:47:57.549Z,19.44
2018-09-01T09:50:30.675Z,19.87
2018-09-01T09:53:04.244Z,19.81
2018-09-01T09:55:37.280Z,19.62
2018-09-01T09:58:10.578Z,19.56
2018-09-01T10:00:49.426Z,19.62
2018-09-01T10:06:22.919Z,19.81
2018-09-01T10:08:56.061Z,19.94
2018-09-01T10:11:29.157Z,20.00
2018-09-01T10:14:03.208Z,19.94
2018-09-01T10:16:36.282Z,19.94
2018-09-01T10:19:09.569Z,19.87
2018-09-01T10:21:42.685Z,19.75
2018-09-01T10:24:15.772Z,19.87
2018-09-01T10:26:48.926Z,20.06
2018-09-01T10:29:21.919Z,20.19
2018-09-01T10:31:55.076Z,20.62
2018-09-01T10:34:28.221Z,20.37
2018-09-01T10:37:01.299Z,20.37
2018-09-01T10:39:35.099Z,20.37
2018-09-01T10:42:08.108Z,20.31
2018-09-01T10:44:41.328Z,20.37
2018-09-01T10:47:14.573Z,20.31
2018-09-01T10:49:47.609Z,20.50
2018-09-01T10:52:20.861Z,20.31
2018-09-01T10:54:54.075Z,20.31
2018-09-01T10:57:27.190Z,20.37
2018-09-01T11:00:00.506Z,20.19
2018-09-01T11:02:33.531Z,20.37
2018-09-01T11:05:06.643Z,20.37
2018-09-01T11:07:39.843Z,20.56
2018-09-01T11:10:13.324Z,20.69
2018-09-01T11:12:46.394Z,20.62
2018-09-01T11:15:19.490Z,21.06
2018-09-01T11:17:53.082Z,20.88
2018-09-01T11:20:26.157Z,20.69
2018-09-01T11:22:59.292Z,21.06
2018-09-01T11:25:32.453Z,20.94
2018-09-01T11:28:05.715Z,20.75
2018-09-01T11:30:39.048Z,20.81
2018-09-01T11:33:12.364Z,20.81
2018-09-01T11:35:46.479Z,20.75
2018-09-01T11:38:19.554Z,20.81
2018-09-01T11:40:52.696Z,20.94
2018-09-01T11:43:25.824Z,21.25
2018-09-01T11:46:00.079Z,21.25
2018-09-01T11:48:33.344Z,21.31
2018-09-01T11:51:06.556Z,21.25
2018-09-01T11:53:39.806Z,21.19
2018-09-01T11:56:12.930Z,21.25
2018-09-01T11:58:46.031Z,21.44
2018-09-01T12:01:19.201Z,21.25
2018-09-01T12:03:52.223Z,21.12
2018-09-01T12:06:25.488Z,21.44
2018-09-01T12:08:58.620Z,21.25
2018-09-01T12:11:31.859Z,21.31
2018-09-01T12:14:05.010Z,21.50
2018-09-01T12:16:38.068Z,21.44
2018-09-01T12:19:11.054Z,21.37
2018-09-01T12:21:44.278Z,21.06
2018-09-01T12:24:17.495Z,21.19
2018-09-01T12:26:50.503Z,21.44
2018-09-01T12:29:23.621Z,21.44
2018-09-01T12:31:57.031Z,21.56
2018-09-01T12:34:30.301Z,21.44
2018-09-01T12:37:03.353Z,21.62
2018-09-01T12:39:36.483Z,21.69
2018-09-01T12:42:09.582Z,21.56
2018-09-01T12:44:42.794Z,21.75
2018-09-01T12:47:16.045Z,21.94
2018-09-01T12:49:50.249Z,22.06
2018-09-01T12:52:24.231Z,21.69
2018-09-01T12:54:57.279Z,21.44
2018-09-01T12:57:30.504Z,21.69
2018-09-01T13:00:04.581Z,21.75
2018-09-01T13:02:37.738Z,21.75
2018-09-01T13:05:11.037Z,21.56
2018-09-01T13:07:44.908Z,21.75
2018-09-01T13:10:17.948Z,21.81
2018-09-01T13:12:51.168Z,21.75
2018-09-01T13:15:24.166Z,21.87
2018-09-01T13:17:57.220Z,21.81
2018-09-01T13:20:30.247Z,21.81
2018-09-01T13:23:04.396Z,22.19
2018-09-01T13:25:37.540Z,22.25
2018-09-01T13:28:10.661Z,22.19
2018-09-01T13:30:43.833Z,22.56
2018-09-01T13:33:16.967Z,22.69
2018-09-01T13:35:50.148Z,22.56
2018-09-01T13:38:23.351Z,22.62
2018-09-01T13:40:56.481Z,22.50
2018-09-01T13:43:29.709Z,22.37
2018-09-01T13:46:13.295Z,21.87
2018-09-01T13:48:47.255Z,22.00
2018-09-01T13:51:20.309Z,22.31
2018-09-01T13:53:53.474Z,22.44
2018-09-01T13:56:26.551Z,22.62
2018-09-01T13:59:00.384Z,22.75
2018-09-01T14:01:33.944Z,22.87
2018-09-01T14:04:07.942Z,22.62
2018-09-01T14:06:41.082Z,22.62
2018-09-01T14:09:14.800Z,22.13
2018-09-01T14:11:47.918Z,22.06
2018-09-01T14:14:21.021Z,22.13
2018-09-01T14:16:54.664Z,22.13
2018-09-01T14:19:27.739Z,22.31
2018-09-01T14:22:00.795Z,22.19
2018-09-01T14:24:33.828Z,22.31
2018-09-01T14:27:06.919Z,22.31
2018-09-01T14:29:40.168Z,22.44
2018-09-01T14:32:13.287Z,22.25
2018-09-01T14:34:46.399Z,22.50
2018-09-01T14:37:19.637Z,22.75
2018-09-01T14:39:52.883Z,22.19
2018-09-01T14:42:25.963Z,22.31
2018-09-01T14:44:59.195Z,22.37
2018-09-01T14:47:32.411Z,22.25
2018-09-01T14:50:05.560Z,22.13
2018-09-01T14:52:38.753Z,22.25
2018-09-01T14:55:11.918Z,22.19
2018-09-01T14:57:44.985Z,22.31
2018-09-01T15:00:18.087Z,22.19
2018-09-01T15:07:49.690Z,22.25
2018-09-01T15:10:22.954Z,21.94
2018-09-01T15:12:56.323Z,22.06
2018-09-01T15:15:30.315Z,21.94
2018-09-01T15:18:04.227Z,21.94
2018-09-01T15:20:38.237Z,22.06
2018-09-01T15:23:12.100Z,22.31
2018-09-01T15:25:46.110Z,22.31
2018-09-01T15:28:19.893Z,22.19
2018-09-01T15:33:52.690Z,22.13
2018-09-01T15:36:26.454Z,21.87
2018-09-01T15:39:00.684Z,21.94
2018-09-01T15:41:34.902Z,22.00
2018-09-01T15:44:08.771Z,22.13
2018-09-01T15:46:42.944Z,22.25
2018-09-01T15:49:16.795Z,22.37
2018-09-01T15:51:50.592Z,22.13
2018-09-01T15:54:24.713Z,22.37
2018-09-01T15:56:59.181Z,22.50
2018-09-01T15:59:33.557Z,22.19
2018-09-01T16:02:07.243Z,22.13
2018-09-01T16:04:41.151Z,22.19
2018-09-01T16:07:15.159Z,22.00
2018-09-01T16:09:49.111Z,22.25
2018-09-01T16:12:23.160Z,22.25
2018-09-01T16:17:55.792Z,22.50
2018-09-01T16:20:29.689Z,22.56
2018-09-01T16:23:03.573Z,22.56
2018-09-01T16:25:37.337Z,22.56
2018-09-01T16:28:11.238Z,22.44
2018-09-01T16:30:45.176Z,22.37
2018-09-01T16:33:20.140Z,22.37
2018-09-01T16:35:53.860Z,22.13
2018-09-01T16:38:27.600Z,22.19
2018-09-01T16:41:01.286Z,22.25
2018-09-01T16:43:35.047Z,22.13
2018-09-01T16:46:08.880Z,21.87
2018-09-01T16:48:44.994Z,21.81
2018-09-01T16:51:18.918Z,21.94
2018-09-01T16:53:55.829Z,21.94
2018-09-01T16:56:29.473Z,21.75
2018-09-01T16:59:05.172Z,21.81
2018-09-01T17:01:38.988Z,21.81
2018-09-01T17:04:13.982Z,21.81
2018-09-01T17:06:48.973Z,21.81
2018-09-01T17:09:27.254Z,21.62
2018-09-01T17:12:01.198Z,21.62
2018-09-01T17:14:37.565Z,21.69
2018-09-01T17:17:23.585Z,21.44
2018-09-01T17:19:57.843Z,21.37
2018-09-01T17:22:35.893Z,21.37
2018-09-01T17:25:11.859Z,21.31
2018-09-01T17:27:50.520Z,21.44
2018-09-01T17:30:25.964Z,21.62
2018-09-01T17:33:00.079Z,21.44
2018-09-01T17:35:34.307Z,21.31
2018-09-01T17:38:08.708Z,21.44
2018-09-01T17:40:50.666Z,21.19
2018-09-01T17:43:46.719Z,21.62
2018-09-01T17:49:22.641Z,21.12
2018-09-01T17:51:55.705Z,20.81
2018-09-01T17:54:29.533Z,20.94
2018-09-01T17:57:02.679Z,20.94
2018-09-01T17:59:35.899Z,21.06
2018-09-01T18:02:09.350Z,20.88
2018-09-01T18:04:42.359Z,20.62
2018-09-01T18:07:15.313Z,20.56
2018-09-01T18:09:48.496Z,20.44
2018-09-01T18:12:21.519Z,20.37
2018-09-01T18:14:54.521Z,20.19
2018-09-01T18:17:27.605Z,20.12
2018-09-01T18:20:00.720Z,20.00
2018-09-01T18:22:33.708Z,19.94
2018-09-01T18:25:06.980Z,19.94
2018-09-01T18:27:40.086Z,19.94
2018-09-01T18:30:13.311Z,19.81
2018-09-01T18:32:46.386Z,19.69
2018-09-01T18:35:19.701Z,19.62
2018-09-01T18:37:52.855Z,19.62
2018-09-01T18:40:25.924Z,19.50
2018-09-01T18:42:59.173Z,19.44
2018-09-01T18:45:32.535Z,19.37
2018-09-01T18:48:05.620Z,19.50
2018-09-01T18:50:38.751Z,19.56
2018-09-01T18:53:11.925Z,19.62
2018-09-01T18:55:45.028Z,19.69
2018-09-01T18:58:18.626Z,19.56
2018-09-01T19:00:51.793Z,19.62
2018-09-01T19:03:24.972Z,19.69
2018-09-01T19:05:58.043Z,19.69
2018-09-01T19:08:31.227Z,19.62
2018-09-01T19:11:04.324Z,19.56
2018-09-01T19:13:37.642Z,19.62
2018-09-01T19:16:11.094Z,19.62
2018-09-01T19:18:44.168Z,19.56
2018-09-01T19:21:17.207Z,19.50
2018-09-01T19:23:50.260Z,19.50
2018-09-01T19:26:23.515Z,19.50
2018-09-01T19:28:56.670Z,19.44
2018-09-01T19:31:29.693Z,19.44
2018-09-01T19:34:02.919Z,19.44
2018-09-01T19:36:36.041Z,19.44
2018-09-01T19:39:10.246Z,19.44
2018-09-01T19:41:43.421Z,19.37
2018-09-01T19:44:16.517Z,19.37
2018-09-01T19:46:49.777Z,19.37
2018-09-01T19:49:22.748Z,19.37
2018-09-01T19:51:55.956Z,19.31
2018-09-01T19:54:28.965Z,19.31
2018-09-01T19:57:01.968Z,19.25
2018-09-01T19:59:35.334Z,19.31
2018-09-01T20:02:08.578Z,19.25
2018-09-01T20:04:41.684Z,19.19
2018-09-01T20:07:14.946Z,19.19
2018-09-01T20:09:48.134Z,19.12
2018-09-01T20:12:21.374Z,19.12
2018-09-01T20:14:55.390Z,19.12
2018-09-01T20:17:28.632Z,19.06
2018-09-01T20:20:01.709Z,19.12
2018-09-01T20:22:34.861Z,19.00
2018-09-01T20:25:08.958Z,19.00
2018-09-01T20:27:42.239Z,18.87
2018-09-01T20:30:15.297Z,18.81
2018-09-01T20:32:48.553Z,18.81
2018-09-01T20:35:27.653Z,18.81
2018-09-01T20:38:00.781Z,18.75
2018-09-01T20:40:33.829Z,18.75
2018-09-01T20:43:07.329Z,18.75
2018-09-01T20:45:40.621Z,18.69
2018-09-01T20:48:13.853Z,18.69
2018-09-01T20:50:46.976Z,18.69
2018-09-01T20:53:19.998Z,18.75
2018-09-01T20:55:53.306Z,18.75
2018-09-01T20:58:26.492Z,18.69
2018-09-01T21:00:59.586Z,18.69
2018-09-01T21:03:32.799Z,18.69
2018-09-01T21:06:06.127Z,18.62
2018-09-01T21:08:40.025Z,18.62
2018-09-01T21:11:13.175Z,18.62
2018-09-01T21:13:46.237Z,18.62
2018-09-01T21:16:19.472Z,18.62
2018-09-01T21:18:52.647Z,18.56
2018-09-01T21:21:25.669Z,18.50
2018-09-01T21:23:58.895Z,18.50
2018-09-01T21:26:31.940Z,18.50
2018-09-01T21:29:05.029Z,18.44
2018-09-01T21:31:38.647Z,18.44
2018-09-01T21:34:11.992Z,18.44
2018-09-01T21:36:45.113Z,18.69
2018-09-01T21:39:18.248Z,18.50
2018-09-01T21:41:51.516Z,18.56
2018-09-01T21:44:24.764Z,18.44
2018-09-01T21:46:58.493Z,18.44
2018-09-01T21:49:31.701Z,18.50
2018-09-01T21:52:04.818Z,18.44
2018-09-01T21:54:37.942Z,18.44
2018-09-01T21:57:11.209Z,18.44
2018-09-01T21:59:44.129Z,18.37
2018-09-01T22:02:22.469Z,18.44
2018-09-01T22:05:01.275Z,18.44
2018-09-01T22:07:34.343Z,18.62
2018-09-01T22:10:07.549Z,18.44
2018-09-01T22:12:40.661Z,18.37
2018-09-01T22:15:18.333Z,18.69
2018-09-01T22:17:51.479Z,18.50
2018-09-01T22:20:24.627Z,18.81
2018-09-01T22:22:57.935Z,18.56
2018-09-01T22:25:31.019Z,18.56
2018-09-01T22:28:04.878Z,18.50
2018-09-01T22:30:38.076Z,18.37
2018-09-01T22:33:11.339Z,18.50
2018-09-01T22:35:44.654Z,18.56
2018-09-01T22:38:17.664Z,18.44
2018-09-01T22:40:50.754Z,18.37
2018-09-01T22:43:23.944Z,18.44
2018-09-01T22:45:57.078Z,18.56
2018-09-01T22:48:30.240Z,18.69
2018-09-01T22:51:03.299Z,18.75
2018-09-01T22:53:36.346Z,18.69
2018-09-01T22:56:09.322Z,18.12
2018-09-01T22:58:42.582Z,18.31
2018-09-01T23:01:17.904Z,18.12
2018-09-01T23:03:50.974Z,18.00
2018-09-01T23:06:24.154Z,18.00
2018-09-01T23:08:57.317Z,18.37
2018-09-01T23:11:30.421Z,18.31
2018-09-01T23:14:03.701Z,18.19
2018-09-01T23:16:36.768Z,18.06
2018-09-01T23:19:09.691Z,18.00
2018-09-01T23:21:45.193Z,18.19
2018-09-01T23:24:18.205Z,17.69
2018-09-01T23:26:51.309Z,17.81
2018-09-01T23:29:24.463Z,17.75
2018-09-01T23:31:57.528Z,18.00
2018-09-01T23:34:30.572Z,17.62
2018-09-01T23:37:03.712Z,17.75
2018-09-01T23:39:36.676Z,18.06
2018-09-01T23:42:09.804Z,17.81
2018-09-01T23:44:43.041Z,17.75
2018-09-01T23:47:15.966Z,18.00
2018-09-01T23:49:49.052Z,17.87
2018-09-01T23:52:24.460Z,17.37
2018-09-01T23:54:57.791Z,17.44
2018-09-01T23:57:30.860Z,17.56
